ENBR/BGO METAR and TAF weather

Enter ICAO airport designator
Station Type Date Time Source
ENBR METAR 2019/06/17 12:20 UTC NOAA

ENBR 171220Z 18015KT 140V210 9999 8000NE -SHRA FEW007 SCT015CB BKN023 14/11 Q1012 TEMPO SHRA BKN012CB RMK WIND 1200FT 17024G38KT


Station Type Date Time Source
ENBR Decoded METAR 2019/06/17 12:20 UTC NOAA

Bergen / Flesland, Norway (ENBR) 60-17N 005-14E 50M
Jun 17, 2019 - 08:20 AM EDT / 2019.06.17 1220 UTC
Wind: from the S (180 degrees) at 17 MPH (15 KT) (direction variable):0
Visibility: greater than 7 mile(s):0
Sky conditions: mostly cloudy
Weather: light rain showers; Cumulonimbus clouds observed
Temperature: 57 F (14 C)
Dew Point: 51 F (11 C)
Relative Humidity: 82%
Pressure (altimeter): 29.88 in. Hg (1012 hPa)
ob: ENBR 171220Z 18015KT 140V210 9999 8000NE -SHRA FEW007 SCT015CB BKN023 14/11 Q1012 TEMPO SHRA BKN012CB RMK WIND 1200FT 17024G38KT
cycle: 12

Station Type Date Time Source
ENBR TAF 2019/06/17 12:57 UTC NOAA

TAF ENBR 171100Z 1712/1812 16015KT 9999 -SHRA FEW015 BKN025
TEMPO 1712/1715 17018G28KT 4000 SHRA BR BKN008 SCT020CB
BECMG 1713/1715 BKN010
TEMPO 1715/1806 3000 DZRA BR BKN005
BECMG 1806/1809 BKN020
TEMPO 1806/1812 SHRA BKN014TCU

Example: see airport list